sensor_id;sensor_type;location;lat;lon;timestamp;P1;durP1;ratioP1;P2;durP2;ratioP2
72117;SDS011;59992;47.490;8.736;2023-04-26T00:01:34;3.00;;;1.50;;
72117;SDS011;59992;47.490;8.736;2023-04-26T00:04:25;3.80;;;1.40;;
72117;SDS011;59992;47.490;8.736;2023-04-26T00:07:16;2.40;;;1.30;;
72117;SDS011;59992;47.490;8.736;2023-04-26T00:10:07;3.10;;;1.30;;
72117;SDS011;59992;47.490;8.736;2023-04-26T00:12:58;3.60;;;1.40;;
72117;SDS011;59992;47.490;8.736;2023-04-26T00:15:49;1.80;;;1.20;;
72117;SDS011;59992;47.490;8.736;2023-04-26T00:18:39;2.40;;;1.30;;
72117;SDS011;59992;47.490;8.736;2023-04-26T00:21:29;2.40;;;1.30;;
72117;SDS011;59992;47.490;8.736;2023-04-26T00:24:19;2.80;;;1.50;;
72117;SDS011;59992;47.490;8.736;2023-04-26T00:27:10;1.90;;;1.10;;
72117;SDS011;59992;47.490;8.736;2023-04-26T00:30:00;1.80;;;1.30;;
72117;SDS011;59992;47.490;8.736;2023-04-26T00:32:51;3.40;;;1.10;;
72117;SDS011;59992;47.490;8.736;2023-04-26T00:35:41;2.60;;;1.20;;
72117;SDS011;59992;47.490;8.736;2023-04-26T00:38:31;2.20;;;1.40;;
72117;SDS011;59992;47.490;8.736;2023-04-26T00:41:21;4.20;;;1.20;;
72117;SDS011;59992;47.490;8.736;2023-04-26T00:44:13;3.90;;;1.60;;
72117;SDS011;59992;47.490;8.736;2023-04-26T00:47:03;2.40;;;1.20;;
72117;SDS011;59992;47.490;8.736;2023-04-26T00:49:54;3.00;;;1.60;;
72117;SDS011;59992;47.490;8.736;2023-04-26T00:52:44;3.30;;;1.80;;
72117;SDS011;59992;47.490;8.736;2023-04-26T00:55:35;3.60;;;1.90;;
72117;SDS011;59992;47.490;8.736;2023-04-26T00:58:25;2.60;;;1.20;;
72117;SDS011;59992;47.490;8.736;2023-04-26T01:01:15;4.00;;;1.80;;
72117;SDS011;59992;47.490;8.736;2023-04-26T01:04:06;2.80;;;1.50;;
72117;SDS011;59992;47.490;8.736;2023-04-26T01:06:56;2.30;;;1.20;;
72117;SDS011;59992;47.490;8.736;2023-04-26T01:09:47;2.30;;;1.30;;
72117;SDS011;59992;47.490;8.736;2023-04-26T01:12:38;2.30;;;1.20;;
72117;SDS011;59992;47.490;8.736;2023-04-26T01:15:29;2.80;;;1.20;;
72117;SDS011;59992;47.490;8.736;2023-04-26T01:18:20;1.80;;;1.10;;
72117;SDS011;59992;47.490;8.736;2023-04-26T01:21:10;2.70;;;1.20;;
72117;SDS011;59992;47.490;8.736;2023-04-26T01:24:07;2.80;;;1.20;;
72117;SDS011;59992;47.490;8.736;2023-04-26T01:26:58;2.50;;;1.10;;
72117;SDS011;59992;47.490;8.736;2023-04-26T01:29:50;2.10;;;1.00;;
72117;SDS011;59992;47.490;8.736;2023-04-26T01:32:40;1.90;;;0.90;;
72117;SDS011;59992;47.490;8.736;2023-04-26T01:35:30;2.10;;;1.30;;
72117;SDS011;59992;47.490;8.736;2023-04-26T01:38:21;2.60;;;1.20;;
72117;SDS011;59992;47.490;8.736;2023-04-26T01:41:12;2.30;;;1.00;;
72117;SDS011;59992;47.490;8.736;2023-04-26T01:44:03;2.10;;;1.30;;
72117;SDS011;59992;47.490;8.736;2023-04-26T01:46:53;2.20;;;1.20;;
72117;SDS011;59992;47.490;8.736;2023-04-26T01:49:44;2.00;;;1.30;;
72117;SDS011;59992;47.490;8.736;2023-04-26T01:52:34;3.60;;;1.60;;
72117;SDS011;59992;47.490;8.736;2023-04-26T01:55:25;1.90;;;1.20;;
72117;SDS011;59992;47.490;8.736;2023-04-26T01:58:15;2.50;;;1.10;;
72117;SDS011;59992;47.490;8.736;2023-04-26T02:01:06;2.00;;;1.20;;
72117;SDS011;59992;47.490;8.736;2023-04-26T02:03:57;1.90;;;1.10;;
72117;SDS011;59992;47.490;8.736;2023-04-26T02:06:47;2.30;;;1.10;;
72117;SDS011;59992;47.490;8.736;2023-04-26T02:09:37;2.20;;;1.10;;
72117;SDS011;59992;47.490;8.736;2023-04-26T02:12:27;2.30;;;1.20;;
72117;SDS011;59992;47.490;8.736;2023-04-26T02:15:18;1.80;;;1.10;;
72117;SDS011;59992;47.490;8.736;2023-04-26T02:18:09;1.80;;;1.10;;
72117;SDS011;59992;47.490;8.736;2023-04-26T02:20:59;1.70;;;1.20;;
72117;SDS011;59992;47.490;8.736;2023-04-26T02:23:49;2.00;;;1.30;;
72117;SDS011;59992;47.490;8.736;2023-04-26T02:26:40;2.10;;;1.10;;
72117;SDS011;59992;47.490;8.736;2023-04-26T02:29:30;2.10;;;1.00;;
72117;SDS011;59992;47.490;8.736;2023-04-26T02:32:20;2.50;;;1.30;;
72117;SDS011;59992;47.490;8.736;2023-04-26T02:35:10;2.30;;;1.00;;
72117;SDS011;59992;47.490;8.736;2023-04-26T02:38:00;1.60;;;1.10;;
72117;SDS011;59992;47.490;8.736;2023-04-26T02:40:51;2.10;;;1.10;;
72117;SDS011;59992;47.490;8.736;2023-04-26T02:43:46;4.80;;;1.30;;
72117;SDS011;59992;47.490;8.736;2023-04-26T02:46:37;2.90;;;1.10;;
72117;SDS011;59992;47.490;8.736;2023-04-26T02:49:27;1.80;;;1.20;;
72117;SDS011;59992;47.490;8.736;2023-04-26T02:52:18;2.00;;;1.20;;
72117;SDS011;59992;47.490;8.736;2023-04-26T02:55:09;2.40;;;1.10;;
72117;SDS011;59992;47.490;8.736;2023-04-26T02:57:59;4.10;;;1.50;;
72117;SDS011;59992;47.490;8.736;2023-04-26T03:00:49;2.50;;;1.30;;
72117;SDS011;59992;47.490;8.736;2023-04-26T03:03:40;3.20;;;1.30;;
72117;SDS011;59992;47.490;8.736;2023-04-26T03:06:31;2.00;;;1.20;;
72117;SDS011;59992;47.490;8.736;2023-04-26T03:09:21;2.70;;;1.40;;
72117;SDS011;59992;47.490;8.736;2023-04-26T03:12:11;2.90;;;1.50;;
72117;SDS011;59992;47.490;8.736;2023-04-26T03:15:02;2.30;;;1.30;;
72117;SDS011;59992;47.490;8.736;2023-04-26T03:17:52;2.60;;;1.50;;
72117;SDS011;59992;47.490;8.736;2023-04-26T03:20:44;3.30;;;1.60;;
72117;SDS011;59992;47.490;8.736;2023-04-26T03:23:34;3.00;;;1.30;;
72117;SDS011;59992;47.490;8.736;2023-04-26T03:26:24;5.60;;;1.60;;
72117;SDS011;59992;47.490;8.736;2023-04-26T03:29:15;2.80;;;1.50;;
72117;SDS011;59992;47.490;8.736;2023-04-26T03:32:05;3.80;;;1.80;;
72117;SDS011;59992;47.490;8.736;2023-04-26T03:34:56;2.80;;;1.50;;
72117;SDS011;59992;47.490;8.736;2023-04-26T03:37:47;2.90;;;1.60;;
72117;SDS011;59992;47.490;8.736;2023-04-26T03:40:37;3.60;;;1.60;;
72117;SDS011;59992;47.490;8.736;2023-04-26T03:43:27;3.70;;;1.90;;
72117;SDS011;59992;47.490;8.736;2023-04-26T03:46:18;3.20;;;1.80;;
72117;SDS011;59992;47.490;8.736;2023-04-26T03:49:08;5.70;;;2.00;;
72117;SDS011;59992;47.490;8.736;2023-04-26T03:51:58;4.00;;;1.90;;
72117;SDS011;59992;47.490;8.736;2023-04-26T03:54:48;3.80;;;2.00;;
72117;SDS011;59992;47.490;8.736;2023-04-26T03:57:38;3.80;;;1.90;;
72117;SDS011;59992;47.490;8.736;2023-04-26T04:00:28;4.90;;;2.30;;
72117;SDS011;59992;47.490;8.736;2023-04-26T04:03:18;2.60;;;1.40;;
72117;SDS011;59992;47.490;8.736;2023-04-26T04:06:08;2.90;;;1.60;;
72117;SDS011;59992;47.490;8.736;2023-04-26T04:08:58;3.00;;;1.30;;
72117;SDS011;59992;47.490;8.736;2023-04-26T04:11:49;4.20;;;1.40;;
72117;SDS011;59992;47.490;8.736;2023-04-26T04:14:39;3.70;;;1.80;;
72117;SDS011;59992;47.490;8.736;2023-04-26T04:17:29;2.60;;;1.50;;
72117;SDS011;59992;47.490;8.736;2023-04-26T04:20:20;4.50;;;1.80;;
72117;SDS011;59992;47.490;8.736;2023-04-26T04:23:10;4.20;;;2.10;;
72117;SDS011;59992;47.490;8.736;2023-04-26T04:26:00;3.90;;;1.90;;
72117;SDS011;59992;47.490;8.736;2023-04-26T04:28:50;4.60;;;2.30;;
72117;SDS011;59992;47.490;8.736;2023-04-26T04:31:41;3.80;;;2.00;;
72117;SDS011;59992;47.490;8.736;2023-04-26T04:34:33;5.90;;;2.50;;
72117;SDS011;59992;47.490;8.736;2023-04-26T04:37:23;3.30;;;2.10;;
72117;SDS011;59992;47.490;8.736;2023-04-26T04:40:14;5.60;;;2.30;;
72117;SDS011;59992;47.490;8.736;2023-04-26T04:43:05;4.20;;;2.30;;
72117;SDS011;59992;47.490;8.736;2023-04-26T04:45:55;4.20;;;2.40;;
72117;SDS011;59992;47.490;8.736;2023-04-26T04:48:45;3.10;;;2.00;;
72117;SDS011;59992;47.490;8.736;2023-04-26T04:51:36;5.90;;;1.90;;
72117;SDS011;59992;47.490;8.736;2023-04-26T04:54:26;5.30;;;1.70;;
72117;SDS011;59992;47.490;8.736;2023-04-26T04:57:16;3.80;;;1.70;;
72117;SDS011;59992;47.490;8.736;2023-04-26T05:00:07;3.50;;;1.90;;
72117;SDS011;59992;47.490;8.736;2023-04-26T05:02:59;4.20;;;2.10;;
72117;SDS011;59992;47.490;8.736;2023-04-26T05:05:49;4.00;;;1.80;;
72117;SDS011;59992;47.490;8.736;2023-04-26T05:08:39;4.90;;;2.60;;
72117;SDS011;59992;47.490;8.736;2023-04-26T05:11:29;5.40;;;3.30;;
72117;SDS011;59992;47.490;8.736;2023-04-26T05:14:19;6.10;;;3.60;;
72117;SDS011;59992;47.490;8.736;2023-04-26T05:17:10;8.20;;;3.80;;
72117;SDS011;59992;47.490;8.736;2023-04-26T05:20:00;5.90;;;3.90;;
72117;SDS011;59992;47.490;8.736;2023-04-26T05:22:53;7.70;;;4.10;;
72117;SDS011;59992;47.490;8.736;2023-04-26T05:25:43;6.70;;;4.20;;
72117;SDS011;59992;47.490;8.736;2023-04-26T05:28:33;7.90;;;4.40;;
72117;SDS011;59992;47.490;8.736;2023-04-26T05:31:23;8.50;;;4.80;;
72117;SDS011;59992;47.490;8.736;2023-04-26T05:34:13;7.00;;;4.20;;
72117;SDS011;59992;47.490;8.736;2023-04-26T05:37:03;7.30;;;4.60;;
72117;SDS011;59992;47.490;8.736;2023-04-26T05:39:54;9.00;;;4.30;;
72117;SDS011;59992;47.490;8.736;2023-04-26T05:42:44;8.20;;;4.90;;
72117;SDS011;59992;47.490;8.736;2023-04-26T05:45:34;10.90;;;5.40;;
72117;SDS011;59992;47.490;8.736;2023-04-26T05:48:24;9.00;;;5.10;;
72117;SDS011;59992;47.490;8.736;2023-04-26T05:51:16;9.30;;;5.10;;
72117;SDS011;59992;47.490;8.736;2023-04-26T05:54:06;8.50;;;5.20;;
72117;SDS011;59992;47.490;8.736;2023-04-26T05:56:56;9.30;;;5.40;;
72117;SDS011;59992;47.490;8.736;2023-04-26T05:59:46;10.10;;;4.80;;
72117;SDS011;59992;47.490;8.736;2023-04-26T06:02:36;9.80;;;5.00;;
72117;SDS011;59992;47.490;8.736;2023-04-26T06:05:27;10.00;;;4.80;;
72117;SDS011;59992;47.490;8.736;2023-04-26T06:08:17;8.10;;;4.70;;
72117;SDS011;59992;47.490;8.736;2023-04-26T06:11:07;7.50;;;4.40;;
72117;SDS011;59992;47.490;8.736;2023-04-26T06:13:57;5.70;;;3.50;;
72117;SDS011;59992;47.490;8.736;2023-04-26T06:16:47;7.40;;;4.00;;
72117;SDS011;59992;47.490;8.736;2023-04-26T06:19:38;7.90;;;4.40;;
72117;SDS011;59992;47.490;8.736;2023-04-26T06:22:28;7.20;;;4.20;;
72117;SDS011;59992;47.490;8.736;2023-04-26T06:25:18;6.80;;;4.10;;
72117;SDS011;59992;47.490;8.736;2023-04-26T06:28:08;5.70;;;3.50;;
72117;SDS011;59992;47.490;8.736;2023-04-26T06:30:58;5.20;;;3.30;;
72117;SDS011;59992;47.490;8.736;2023-04-26T06:33:48;6.30;;;3.60;;
72117;SDS011;59992;47.490;8.736;2023-04-26T06:36:38;6.70;;;3.60;;
72117;SDS011;59992;47.490;8.736;2023-04-26T06:39:28;5.50;;;3.50;;
72117;SDS011;59992;47.490;8.736;2023-04-26T06:42:18;6.90;;;3.50;;
72117;SDS011;59992;47.490;8.736;2023-04-26T06:45:09;5.50;;;3.50;;
72117;SDS011;59992;47.490;8.736;2023-04-26T06:48:00;5.90;;;3.50;;
72117;SDS011;59992;47.490;8.736;2023-04-26T06:50:51;6.00;;;3.80;;
72117;SDS011;59992;47.490;8.736;2023-04-26T06:53:42;5.40;;;3.40;;
72117;SDS011;59992;47.490;8.736;2023-04-26T06:56:32;5.90;;;3.80;;
72117;SDS011;59992;47.490;8.736;2023-04-26T06:59:23;4.00;;;3.00;;
72117;SDS011;59992;47.490;8.736;2023-04-26T07:02:13;5.90;;;3.40;;
72117;SDS011;59992;47.490;8.736;2023-04-26T07:05:03;5.90;;;4.10;;
72117;SDS011;59992;47.490;8.736;2023-04-26T07:07:55;5.30;;;3.50;;
72117;SDS011;59992;47.490;8.736;2023-04-26T07:10:45;6.10;;;3.50;;
72117;SDS011;59992;47.490;8.736;2023-04-26T07:13:35;5.60;;;3.20;;
72117;SDS011;59992;47.490;8.736;2023-04-26T07:16:25;5.50;;;3.20;;
72117;SDS011;59992;47.490;8.736;2023-04-26T07:19:15;6.20;;;3.50;;
72117;SDS011;59992;47.490;8.736;2023-04-26T07:22:06;4.80;;;3.00;;
72117;SDS011;59992;47.490;8.736;2023-04-26T07:24:57;4.80;;;3.10;;
72117;SDS011;59992;47.490;8.736;2023-04-26T07:27:47;4.70;;;3.30;;
72117;SDS011;59992;47.490;8.736;2023-04-26T07:30:38;5.10;;;3.10;;
72117;SDS011;59992;47.490;8.736;2023-04-26T07:33:29;4.60;;;2.90;;
72117;SDS011;59992;47.490;8.736;2023-04-26T07:36:19;4.40;;;3.00;;
72117;SDS011;59992;47.490;8.736;2023-04-26T07:39:09;3.50;;;2.60;;
72117;SDS011;59992;47.490;8.736;2023-04-26T07:42:00;6.00;;;3.10;;
72117;SDS011;59992;47.490;8.736;2023-04-26T07:44:50;6.20;;;3.10;;
72117;SDS011;59992;47.490;8.736;2023-04-26T07:47:40;3.80;;;2.70;;
72117;SDS011;59992;47.490;8.736;2023-04-26T07:50:31;4.60;;;2.70;;
72117;SDS011;59992;47.490;8.736;2023-04-26T07:53:21;4.30;;;3.10;;
72117;SDS011;59992;47.490;8.736;2023-04-26T07:56:12;4.20;;;2.70;;
72117;SDS011;59992;47.490;8.736;2023-04-26T07:59:02;7.20;;;3.20;;
72117;SDS011;59992;47.490;8.736;2023-04-26T08:01:52;4.50;;;3.10;;
72117;SDS011;59992;47.490;8.736;2023-04-26T08:04:47;4.00;;;3.00;;
72117;SDS011;59992;47.490;8.736;2023-04-26T08:07:38;4.60;;;3.00;;
72117;SDS011;59992;47.490;8.736;2023-04-26T08:10:29;5.30;;;3.10;;
72117;SDS011;59992;47.490;8.736;2023-04-26T08:13:19;5.30;;;3.20;;
72117;SDS011;59992;47.490;8.736;2023-04-26T08:16:09;4.80;;;3.20;;
72117;SDS011;59992;47.490;8.736;2023-04-26T08:18:59;4.20;;;3.10;;
72117;SDS011;59992;47.490;8.736;2023-04-26T08:21:50;7.00;;;3.50;;
72117;SDS011;59992;47.490;8.736;2023-04-26T08:24:40;5.90;;;3.50;;
72117;SDS011;59992;47.490;8.736;2023-04-26T08:27:34;7.50;;;3.50;;
72117;SDS011;59992;47.490;8.736;2023-04-26T08:30:24;5.60;;;3.60;;
72117;SDS011;59992;47.490;8.736;2023-04-26T08:33:16;4.40;;;2.70;;
72117;SDS011;59992;47.490;8.736;2023-04-26T08:36:07;5.20;;;2.80;;
72117;SDS011;59992;47.490;8.736;2023-04-26T08:38:57;5.60;;;2.90;;
72117;SDS011;59992;47.490;8.736;2023-04-26T08:41:50;4.50;;;3.20;;
72117;SDS011;59992;47.490;8.736;2023-04-26T08:44:43;4.80;;;3.30;;
72117;SDS011;59992;47.490;8.736;2023-04-26T08:47:35;5.80;;;2.80;;
72117;SDS011;59992;47.490;8.736;2023-04-26T08:50:30;5.10;;;2.90;;
72117;SDS011;59992;47.490;8.736;2023-04-26T08:53:24;4.30;;;2.60;;
72117;SDS011;59992;47.490;8.736;2023-04-26T08:56:15;6.70;;;3.80;;
72117;SDS011;59992;47.490;8.736;2023-04-26T08:59:06;5.50;;;3.50;;
72117;SDS011;59992;47.490;8.736;2023-04-26T09:01:57;6.00;;;4.10;;
72117;SDS011;59992;47.490;8.736;2023-04-26T09:04:50;6.20;;;2.70;;
72117;SDS011;59992;47.490;8.736;2023-04-26T09:07:41;3.80;;;2.60;;
72117;SDS011;59992;47.490;8.736;2023-04-26T09:10:32;5.60;;;3.00;;
72117;SDS011;59992;47.490;8.736;2023-04-26T09:13:27;4.90;;;2.90;;
72117;SDS011;59992;47.490;8.736;2023-04-26T09:16:17;5.40;;;2.70;;
72117;SDS011;59992;47.490;8.736;2023-04-26T09:19:08;4.80;;;3.00;;
72117;SDS011;59992;47.490;8.736;2023-04-26T09:21:58;4.80;;;3.00;;
72117;SDS011;59992;47.490;8.736;2023-04-26T09:24:49;4.90;;;3.00;;
72117;SDS011;59992;47.490;8.736;2023-04-26T09:27:40;5.70;;;3.30;;
72117;SDS011;59992;47.490;8.736;2023-04-26T09:30:36;5.80;;;3.00;;
72117;SDS011;59992;47.490;8.736;2023-04-26T09:33:27;3.60;;;2.50;;
72117;SDS011;59992;47.490;8.736;2023-04-26T09:36:17;4.80;;;2.70;;
72117;SDS011;59992;47.490;8.736;2023-04-26T09:39:07;4.50;;;2.70;;
72117;SDS011;59992;47.490;8.736;2023-04-26T09:41:58;4.40;;;2.70;;
72117;SDS011;59992;47.490;8.736;2023-04-26T09:44:49;4.20;;;3.00;;
72117;SDS011;59992;47.490;8.736;2023-04-26T09:47:41;4.90;;;2.60;;
72117;SDS011;59992;47.490;8.736;2023-04-26T09:50:31;5.40;;;3.20;;
72117;SDS011;59992;47.490;8.736;2023-04-26T09:53:25;6.20;;;2.60;;
72117;SDS011;59992;47.490;8.736;2023-04-26T09:56:17;5.10;;;2.70;;
72117;SDS011;59992;47.490;8.736;2023-04-26T09:59:08;5.00;;;2.80;;
72117;SDS011;59992;47.490;8.736;2023-04-26T10:01:58;4.70;;;2.70;;
72117;SDS011;59992;47.490;8.736;2023-04-26T10:04:49;5.20;;;3.10;;
72117;SDS011;59992;47.490;8.736;2023-04-26T10:07:40;4.90;;;2.70;;
72117;SDS011;59992;47.490;8.736;2023-04-26T10:10:31;4.60;;;2.30;;
72117;SDS011;59992;47.490;8.736;2023-04-26T10:13:22;5.20;;;2.40;;
72117;SDS011;59992;47.490;8.736;2023-04-26T10:16:13;4.80;;;2.60;;
72117;SDS011;59992;47.490;8.736;2023-04-26T10:19:04;3.70;;;2.40;;
72117;SDS011;59992;47.490;8.736;2023-04-26T10:21:55;5.30;;;2.20;;
72117;SDS011;59992;47.490;8.736;2023-04-26T10:24:50;3.00;;;2.00;;
72117;SDS011;59992;47.490;8.736;2023-04-26T10:27:49;3.80;;;1.90;;
72117;SDS011;59992;47.490;8.736;2023-04-26T10:33:44;5.20;;;2.50;;
72117;SDS011;59992;47.490;8.736;2023-04-26T10:37:08;4.20;;;2.70;;
72117;SDS011;59992;47.490;8.736;2023-04-26T10:40:21;3.50;;;2.50;;
72117;SDS011;59992;47.490;8.736;2023-04-26T10:43:29;4.90;;;2.40;;
72117;SDS011;59992;47.490;8.736;2023-04-26T10:46:35;5.00;;;2.20;;
72117;SDS011;59992;47.490;8.736;2023-04-26T10:49:29;4.30;;;2.10;;
72117;SDS011;59992;47.490;8.736;2023-04-26T10:52:34;5.40;;;2.70;;
72117;SDS011;59992;47.490;8.736;2023-04-26T10:55:38;3.60;;;1.80;;
72117;SDS011;59992;47.490;8.736;2023-04-26T10:58:29;5.90;;;2.30;;
72117;SDS011;59992;47.490;8.736;2023-04-26T11:01:20;3.80;;;1.70;;
72117;SDS011;59992;47.490;8.736;2023-04-26T11:04:11;5.90;;;2.20;;
72117;SDS011;59992;47.490;8.736;2023-04-26T11:07:02;3.90;;;2.20;;
72117;SDS011;59992;47.490;8.736;2023-04-26T11:09:54;4.80;;;1.90;;
72117;SDS011;59992;47.490;8.736;2023-04-26T11:12:49;4.90;;;2.00;;
72117;SDS011;59992;47.490;8.736;2023-04-26T11:15:53;2.10;;;1.50;;
72117;SDS011;59992;47.490;8.736;2023-04-26T11:18:50;3.80;;;1.60;;
72117;SDS011;59992;47.490;8.736;2023-04-26T11:21:43;5.30;;;1.70;;
72117;SDS011;59992;47.490;8.736;2023-04-26T11:24:34;3.30;;;1.60;;
72117;SDS011;59992;47.490;8.736;2023-04-26T11:27:25;4.80;;;1.90;;
72117;SDS011;59992;47.490;8.736;2023-04-26T11:30:18;3.30;;;2.00;;
72117;SDS011;59992;47.490;8.736;2023-04-26T11:33:14;3.90;;;1.90;;
72117;SDS011;59992;47.490;8.736;2023-04-26T11:36:06;4.70;;;1.70;;
72117;SDS011;59992;47.490;8.736;2023-04-26T11:38:56;4.20;;;1.90;;
72117;SDS011;59992;47.490;8.736;2023-04-26T11:41:48;3.10;;;1.50;;
72117;SDS011;59992;47.490;8.736;2023-04-26T11:44:39;4.70;;;1.80;;
72117;SDS011;59992;47.490;8.736;2023-04-26T11:47:30;3.30;;;1.70;;
72117;SDS011;59992;47.490;8.736;2023-04-26T11:50:21;3.70;;;1.40;;
72117;SDS011;59992;47.490;8.736;2023-04-26T11:53:14;4.50;;;1.80;;
72117;SDS011;59992;47.490;8.736;2023-04-26T11:56:05;3.30;;;1.60;;
72117;SDS011;59992;47.490;8.736;2023-04-26T11:59:03;3.10;;;1.50;;
72117;SDS011;59992;47.490;8.736;2023-04-26T12:01:53;3.50;;;1.20;;
72117;SDS011;59992;47.490;8.736;2023-04-26T12:04:44;4.00;;;1.50;;
72117;SDS011;59992;47.490;8.736;2023-04-26T12:07:35;3.20;;;1.40;;
72117;SDS011;59992;47.490;8.736;2023-04-26T12:10:27;2.70;;;1.40;;
72117;SDS011;59992;47.490;8.736;2023-04-26T12:13:18;4.70;;;1.50;;
72117;SDS011;59992;47.490;8.736;2023-04-26T12:16:09;2.70;;;1.20;;
72117;SDS011;59992;47.490;8.736;2023-04-26T12:19:04;3.50;;;1.40;;
72117;SDS011;59992;47.490;8.736;2023-04-26T12:21:55;3.00;;;1.30;;
72117;SDS011;59992;47.490;8.736;2023-04-26T12:24:45;2.60;;;1.60;;
72117;SDS011;59992;47.490;8.736;2023-04-26T12:27:35;4.00;;;1.20;;
72117;SDS011;59992;47.490;8.736;2023-04-26T12:30:26;4.40;;;1.50;;
72117;SDS011;59992;47.490;8.736;2023-04-26T12:33:17;3.00;;;1.30;;
72117;SDS011;59992;47.490;8.736;2023-04-26T12:36:09;3.60;;;1.30;;
72117;SDS011;59992;47.490;8.736;2023-04-26T12:39:00;2.20;;;1.10;;
72117;SDS011;59992;47.490;8.736;2023-04-26T12:41:51;3.30;;;1.60;;
72117;SDS011;59992;47.490;8.736;2023-04-26T12:44:41;3.50;;;1.30;;
72117;SDS011;59992;47.490;8.736;2023-04-26T12:47:31;2.60;;;1.40;;
72117;SDS011;59992;47.490;8.736;2023-04-26T12:50:22;3.20;;;1.50;;
72117;SDS011;59992;47.490;8.736;2023-04-26T12:53:12;5.00;;;1.50;;
72117;SDS011;59992;47.490;8.736;2023-04-26T12:56:02;3.40;;;1.40;;
72117;SDS011;59992;47.490;8.736;2023-04-26T12:58:53;3.80;;;1.20;;
72117;SDS011;59992;47.490;8.736;2023-04-26T13:01:43;3.30;;;1.50;;
72117;SDS011;59992;47.490;8.736;2023-04-26T13:04:34;3.70;;;1.50;;
72117;SDS011;59992;47.490;8.736;2023-04-26T13:07:25;3.20;;;1.10;;
72117;SDS011;59992;47.490;8.736;2023-04-26T13:10:15;3.20;;;1.30;;
72117;SDS011;59992;47.490;8.736;2023-04-26T13:13:06;2.70;;;1.30;;
72117;SDS011;59992;47.490;8.736;2023-04-26T13:15:57;3.70;;;1.60;;
72117;SDS011;59992;47.490;8.736;2023-04-26T13:18:47;2.90;;;1.40;;
72117;SDS011;59992;47.490;8.736;2023-04-26T13:21:37;5.40;;;2.10;;
72117;SDS011;59992;47.490;8.736;2023-04-26T13:24:28;3.80;;;1.40;;
72117;SDS011;59992;47.490;8.736;2023-04-26T13:27:18;4.30;;;1.80;;
72117;SDS011;59992;47.490;8.736;2023-04-26T13:30:10;6.70;;;1.60;;
72117;SDS011;59992;47.490;8.736;2023-04-26T13:33:01;2.10;;;1.20;;
72117;SDS011;59992;47.490;8.736;2023-04-26T13:35:51;4.30;;;1.20;;
72117;SDS011;59992;47.490;8.736;2023-04-26T13:38:42;3.10;;;1.70;;
72117;SDS011;59992;47.490;8.736;2023-04-26T13:41:33;4.80;;;1.50;;
72117;SDS011;59992;47.490;8.736;2023-04-26T13:44:23;3.50;;;1.30;;
72117;SDS011;59992;47.490;8.736;2023-04-26T13:47:14;3.70;;;1.40;;
72117;SDS011;59992;47.490;8.736;2023-04-26T13:50:05;3.70;;;1.60;;
72117;SDS011;59992;47.490;8.736;2023-04-26T13:52:56;4.10;;;1.40;;
72117;SDS011;59992;47.490;8.736;2023-04-26T13:55:47;2.90;;;1.50;;
72117;SDS011;59992;47.490;8.736;2023-04-26T13:58:37;5.50;;;1.80;;
72117;SDS011;59992;47.490;8.736;2023-04-26T14:01:27;3.70;;;1.70;;
72117;SDS011;59992;47.490;8.736;2023-04-26T14:04:18;2.30;;;1.40;;
72117;SDS011;59992;47.490;8.736;2023-04-26T14:07:09;3.20;;;1.60;;
72117;SDS011;59992;47.490;8.736;2023-04-26T14:09:59;3.70;;;1.60;;
72117;SDS011;59992;47.490;8.736;2023-04-26T14:12:50;3.70;;;1.70;;
72117;SDS011;59992;47.490;8.736;2023-04-26T14:15:41;4.30;;;1.90;;
72117;SDS011;59992;47.490;8.736;2023-04-26T14:18:31;3.50;;;1.50;;
72117;SDS011;59992;47.490;8.736;2023-04-26T14:21:21;2.70;;;1.40;;
72117;SDS011;59992;47.490;8.736;2023-04-26T14:24:12;3.20;;;1.50;;
72117;SDS011;59992;47.490;8.736;2023-04-26T14:27:03;3.70;;;1.50;;
72117;SDS011;59992;47.490;8.736;2023-04-26T14:29:53;8.20;;;1.70;;
72117;SDS011;59992;47.490;8.736;2023-04-26T14:32:43;4.90;;;1.70;;
72117;SDS011;59992;47.490;8.736;2023-04-26T14:35:33;5.30;;;1.80;;
72117;SDS011;59992;47.490;8.736;2023-04-26T14:38:24;3.70;;;1.40;;
72117;SDS011;59992;47.490;8.736;2023-04-26T14:41:14;3.60;;;1.60;;
72117;SDS011;59992;47.490;8.736;2023-04-26T14:44:06;7.30;;;1.90;;
72117;SDS011;59992;47.490;8.736;2023-04-26T14:46:57;2.60;;;1.50;;
72117;SDS011;59992;47.490;8.736;2023-04-26T14:49:48;4.00;;;1.60;;
72117;SDS011;59992;47.490;8.736;2023-04-26T14:52:38;3.90;;;1.70;;
72117;SDS011;59992;47.490;8.736;2023-04-26T14:55:28;4.10;;;1.80;;
72117;SDS011;59992;47.490;8.736;2023-04-26T14:58:19;5.60;;;1.70;;
72117;SDS011;59992;47.490;8.736;2023-04-26T15:01:09;3.70;;;1.80;;
72117;SDS011;59992;47.490;8.736;2023-04-26T15:03:59;5.70;;;1.70;;
72117;SDS011;59992;47.490;8.736;2023-04-26T15:06:49;4.20;;;1.80;;
72117;SDS011;59992;47.490;8.736;2023-04-26T15:09:39;4.10;;;1.90;;
72117;SDS011;59992;47.490;8.736;2023-04-26T15:12:30;4.20;;;1.80;;
72117;SDS011;59992;47.490;8.736;2023-04-26T15:15:20;3.90;;;1.90;;
72117;SDS011;59992;47.490;8.736;2023-04-26T15:18:10;3.90;;;1.70;;
72117;SDS011;59992;47.490;8.736;2023-04-26T15:21:00;5.30;;;1.80;;
72117;SDS011;59992;47.490;8.736;2023-04-26T15:23:51;4.10;;;1.70;;
72117;SDS011;59992;47.490;8.736;2023-04-26T15:26:41;4.70;;;1.80;;
72117;SDS011;59992;47.490;8.736;2023-04-26T15:29:31;3.50;;;2.00;;
72117;SDS011;59992;47.490;8.736;2023-04-26T15:32:22;4.30;;;2.00;;
72117;SDS011;59992;47.490;8.736;2023-04-26T15:35:13;4.00;;;2.10;;
72117;SDS011;59992;47.490;8.736;2023-04-26T15:38:03;5.10;;;1.80;;
72117;SDS011;59992;47.490;8.736;2023-04-26T15:40:53;4.60;;;1.60;;
72117;SDS011;59992;47.490;8.736;2023-04-26T15:43:43;3.60;;;1.80;;
72117;SDS011;59992;47.490;8.736;2023-04-26T15:46:34;2.90;;;1.40;;
72117;SDS011;59992;47.490;8.736;2023-04-26T15:49:24;4.30;;;1.80;;
72117;SDS011;59992;47.490;8.736;2023-04-26T15:52:14;3.50;;;1.70;;
72117;SDS011;59992;47.490;8.736;2023-04-26T15:55:05;4.70;;;1.80;;
72117;SDS011;59992;47.490;8.736;2023-04-26T15:57:56;4.50;;;1.80;;
72117;SDS011;59992;47.490;8.736;2023-04-26T16:00:46;3.80;;;1.70;;
72117;SDS011;59992;47.490;8.736;2023-04-26T16:03:37;4.30;;;2.40;;
72117;SDS011;59992;47.490;8.736;2023-04-26T16:06:27;5.30;;;1.80;;
72117;SDS011;59992;47.490;8.736;2023-04-26T16:09:17;3.70;;;2.10;;
72117;SDS011;59992;47.490;8.736;2023-04-26T16:12:08;5.00;;;2.00;;
72117;SDS011;59992;47.490;8.736;2023-04-26T16:14:58;3.70;;;1.80;;
72117;SDS011;59992;47.490;8.736;2023-04-26T16:17:49;3.70;;;1.80;;
72117;SDS011;59992;47.490;8.736;2023-04-26T16:20:39;3.10;;;1.50;;
72117;SDS011;59992;47.490;8.736;2023-04-26T16:23:29;4.10;;;1.60;;
72117;SDS011;59992;47.490;8.736;2023-04-26T16:26:20;4.00;;;1.50;;
72117;SDS011;59992;47.490;8.736;2023-04-26T16:29:10;4.70;;;1.70;;
72117;SDS011;59992;47.490;8.736;2023-04-26T16:32:00;3.00;;;1.50;;
72117;SDS011;59992;47.490;8.736;2023-04-26T16:34:51;3.90;;;1.90;;
72117;SDS011;59992;47.490;8.736;2023-04-26T16:37:41;4.70;;;1.70;;
72117;SDS011;59992;47.490;8.736;2023-04-26T16:40:32;4.30;;;1.70;;
72117;SDS011;59992;47.490;8.736;2023-04-26T16:43:23;4.10;;;1.80;;
72117;SDS011;59992;47.490;8.736;2023-04-26T16:46:14;5.40;;;2.20;;
72117;SDS011;59992;47.490;8.736;2023-04-26T16:49:04;4.40;;;1.80;;
72117;SDS011;59992;47.490;8.736;2023-04-26T16:51:56;3.90;;;2.20;;
72117;SDS011;59992;47.490;8.736;2023-04-26T16:54:47;4.60;;;1.90;;
72117;SDS011;59992;47.490;8.736;2023-04-26T16:57:38;4.40;;;2.00;;
72117;SDS011;59992;47.490;8.736;2023-04-26T17:00:29;4.80;;;2.30;;
72117;SDS011;59992;47.490;8.736;2023-04-26T17:03:20;3.90;;;1.90;;
72117;SDS011;59992;47.490;8.736;2023-04-26T17:06:11;5.20;;;2.00;;
72117;SDS011;59992;47.490;8.736;2023-04-26T17:09:01;4.50;;;1.70;;
72117;SDS011;59992;47.490;8.736;2023-04-26T17:11:52;4.30;;;2.00;;
72117;SDS011;59992;47.490;8.736;2023-04-26T17:14:42;2.50;;;1.70;;